sensor_id;sensor_type;location;lat;lon;timestamp;P1;durP1;ratioP1;P2;durP2;ratioP2
11677;SDS011;5895;41.950;24.372;2023-03-14T00:00:31;2.33;;;2.13;;
11677;SDS011;5895;41.950;24.372;2023-03-14T00:02:58;2.53;;;2.20;;
11677;SDS011;5895;41.950;24.372;2023-03-14T00:05:25;2.50;;;2.25;;
11677;SDS011;5895;41.950;24.372;2023-03-14T00:07:52;2.83;;;2.47;;
11677;SDS011;5895;41.950;24.372;2023-03-14T00:10:20;3.53;;;2.78;;
11677;SDS011;5895;41.950;24.372;2023-03-14T00:12:49;3.13;;;2.83;;
11677;SDS011;5895;41.950;24.372;2023-03-14T00:15:16;2.60;;;2.40;;
11677;SDS011;5895;41.950;24.372;2023-03-14T00:17:43;2.20;;;2.00;;
11677;SDS011;5895;41.950;24.372;2023-03-14T00:20:11;2.60;;;2.38;;
11677;SDS011;5895;41.950;24.372;2023-03-14T00:22:39;3.45;;;2.60;;
11677;SDS011;5895;41.950;24.372;2023-03-14T00:25:07;2.78;;;2.42;;
11677;SDS011;5895;41.950;24.372;2023-03-14T00:27:36;3.00;;;2.80;;
11677;SDS011;5895;41.950;24.372;2023-03-14T00:30:05;2.55;;;2.35;;
11677;SDS011;5895;41.950;24.372;2023-03-14T00:32:34;2.70;;;2.50;;
11677;SDS011;5895;41.950;24.372;2023-03-14T00:35:01;3.75;;;2.70;;
11677;SDS011;5895;41.950;24.372;2023-03-14T00:37:29;3.42;;;2.92;;
11677;SDS011;5895;41.950;24.372;2023-03-14T00:39:57;4.07;;;3.00;;
11677;SDS011;5895;41.950;24.372;2023-03-14T00:42:24;4.40;;;3.28;;
11677;SDS011;5895;41.950;24.372;2023-03-14T00:44:51;6.00;;;4.20;;
11677;SDS011;5895;41.950;24.372;2023-03-14T00:47:20;4.07;;;3.65;;
11677;SDS011;5895;41.950;24.372;2023-03-14T00:49:47;4.10;;;3.50;;
11677;SDS011;5895;41.950;24.372;2023-03-14T00:52:14;3.00;;;2.70;;
11677;SDS011;5895;41.950;24.372;2023-03-14T00:54:42;2.70;;;2.30;;
11677;SDS011;5895;41.950;24.372;2023-03-14T00:57:09;2.40;;;2.20;;
11677;SDS011;5895;41.950;24.372;2023-03-14T00:59:36;2.53;;;2.03;;
11677;SDS011;5895;41.950;24.372;2023-03-14T01:02:04;2.00;;;1.90;;
11677;SDS011;5895;41.950;24.372;2023-03-14T01:04:32;2.40;;;2.20;;
11677;SDS011;5895;41.950;24.372;2023-03-14T01:06:59;2.38;;;1.73;;
11677;SDS011;5895;41.950;24.372;2023-03-14T01:09:27;2.22;;;2.03;;
11677;SDS011;5895;41.950;24.372;2023-03-14T01:11:54;2.88;;;2.50;;
11677;SDS011;5895;41.950;24.372;2023-03-14T01:22:00;2.60;;;2.13;;
11677;SDS011;5895;41.950;24.372;2023-03-14T01:24:28;2.80;;;2.15;;
11677;SDS011;5895;41.950;24.372;2023-03-14T01:26:55;3.25;;;2.00;;
11677;SDS011;5895;41.950;24.372;2023-03-14T01:29:23;2.00;;;1.90;;
11677;SDS011;5895;41.950;24.372;2023-03-14T01:31:50;2.28;;;2.08;;
11677;SDS011;5895;41.950;24.372;2023-03-14T01:34:17;2.03;;;1.83;;
11677;SDS011;5895;41.950;24.372;2023-03-14T01:39:21;3.28;;;1.90;;
11677;SDS011;5895;41.950;24.372;2023-03-14T01:41:49;2.55;;;2.03;;
11677;SDS011;5895;41.950;24.372;2023-03-14T01:44:16;2.20;;;2.00;;
11677;SDS011;5895;41.950;24.372;2023-03-14T01:46:44;2.13;;;1.70;;
11677;SDS011;5895;41.950;24.372;2023-03-14T01:49:16;2.50;;;2.30;;
11677;SDS011;5895;41.950;24.372;2023-03-14T01:51:49;2.40;;;2.20;;
11677;SDS011;5895;41.950;24.372;2023-03-14T01:54:23;3.20;;;2.20;;
11677;SDS011;5895;41.950;24.372;2023-03-14T01:56:56;2.67;;;2.47;;
11677;SDS011;5895;41.950;24.372;2023-03-14T01:59:27;2.60;;;2.40;;
11677;SDS011;5895;41.950;24.372;2023-03-14T02:01:56;2.20;;;2.03;;
11677;SDS011;5895;41.950;24.372;2023-03-14T02:04:24;2.20;;;1.98;;
11677;SDS011;5895;41.950;24.372;2023-03-14T02:06:57;2.53;;;2.30;;
11677;SDS011;5895;41.950;24.372;2023-03-14T02:09:28;2.40;;;2.20;;
11677;SDS011;5895;41.950;24.372;2023-03-14T02:11:57;2.45;;;2.13;;
11677;SDS011;5895;41.950;24.372;2023-03-14T02:14:28;2.30;;;2.10;;
11677;SDS011;5895;41.950;24.372;2023-03-14T02:16:58;2.58;;;1.98;;
11677;SDS011;5895;41.950;24.372;2023-03-14T02:19:30;2.60;;;2.40;;
11677;SDS011;5895;41.950;24.372;2023-03-14T02:22:13;2.13;;;1.92;;
11677;SDS011;5895;41.950;24.372;2023-03-14T02:24:46;2.25;;;2.05;;
11677;SDS011;5895;41.950;24.372;2023-03-14T02:27:23;2.70;;;2.10;;
11677;SDS011;5895;41.950;24.372;2023-03-14T02:29:52;2.53;;;2.30;;
11677;SDS011;5895;41.950;24.372;2023-03-14T02:32:24;2.45;;;2.20;;
11677;SDS011;5895;41.950;24.372;2023-03-14T02:34:53;2.10;;;1.90;;
11677;SDS011;5895;41.950;24.372;2023-03-14T02:37:23;3.05;;;1.85;;
11677;SDS011;5895;41.950;24.372;2023-03-14T02:39:53;3.35;;;1.98;;
11677;SDS011;5895;41.950;24.372;2023-03-14T02:42:21;2.40;;;2.00;;
11677;SDS011;5895;41.950;24.372;2023-03-14T02:44:51;1.80;;;1.70;;
11677;SDS011;5895;41.950;24.372;2023-03-14T02:47:20;1.55;;;1.45;;
11677;SDS011;5895;41.950;24.372;2023-03-14T02:49:52;1.80;;;1.52;;
11677;SDS011;5895;41.950;24.372;2023-03-14T02:52:24;3.05;;;1.80;;
11677;SDS011;5895;41.950;24.372;2023-03-14T02:54:51;1.67;;;1.58;;
11677;SDS011;5895;41.950;24.372;2023-03-14T02:57:18;1.58;;;1.48;;
11677;SDS011;5895;41.950;24.372;2023-03-14T02:59:46;1.63;;;1.50;;
11677;SDS011;5895;41.950;24.372;2023-03-14T03:02:14;2.25;;;2.05;;
11677;SDS011;5895;41.950;24.372;2023-03-14T03:04:42;1.67;;;1.58;;
11677;SDS011;5895;41.950;24.372;2023-03-14T03:07:09;1.60;;;1.50;;
11677;SDS011;5895;41.950;24.372;2023-03-14T03:09:37;1.63;;;1.52;;
11677;SDS011;5895;41.950;24.372;2023-03-14T03:12:04;1.92;;;1.75;;
11677;SDS011;5895;41.950;24.372;2023-03-14T03:14:32;1.50;;;1.40;;
11677;SDS011;5895;41.950;24.372;2023-03-14T03:16:59;1.60;;;1.50;;
11677;SDS011;5895;41.950;24.372;2023-03-14T03:19:28;1.60;;;1.50;;
11677;SDS011;5895;41.950;24.372;2023-03-14T03:21:55;1.63;;;1.50;;
11677;SDS011;5895;41.950;24.372;2023-03-14T03:24:23;1.92;;;1.70;;
11677;SDS011;5895;41.950;24.372;2023-03-14T03:26:50;2.03;;;1.60;;
11677;SDS011;5895;41.950;24.372;2023-03-14T03:29:17;1.63;;;1.52;;
11677;SDS011;5895;41.950;24.372;2023-03-14T03:31:45;2.65;;;1.83;;
11677;SDS011;5895;41.950;24.372;2023-03-14T03:34:12;1.58;;;1.48;;
11677;SDS011;5895;41.950;24.372;2023-03-14T03:36:41;1.42;;;1.33;;
11677;SDS011;5895;41.950;24.372;2023-03-14T03:39:09;1.65;;;1.55;;
11677;SDS011;5895;41.950;24.372;2023-03-14T03:41:36;1.60;;;1.45;;
11677;SDS011;5895;41.950;24.372;2023-03-14T03:44:03;2.95;;;1.90;;
11677;SDS011;5895;41.950;24.372;2023-03-14T03:46:31;2.83;;;1.60;;
11677;SDS011;5895;41.950;24.372;2023-03-14T03:48:59;1.50;;;1.40;;
11677;SDS011;5895;41.950;24.372;2023-03-14T03:51:27;5.25;;;1.65;;
11677;SDS011;5895;41.950;24.372;2023-03-14T03:53:55;1.58;;;1.48;;
11677;SDS011;5895;41.950;24.372;2023-03-14T03:56:23;1.80;;;1.70;;
11677;SDS011;5895;41.950;24.372;2023-03-14T03:58:50;2.00;;;1.48;;
11677;SDS011;5895;41.950;24.372;2023-03-14T04:01:18;1.98;;;1.88;;
11677;SDS011;5895;41.950;24.372;2023-03-14T04:03:45;2.13;;;1.70;;
11677;SDS011;5895;41.950;24.372;2023-03-14T04:06:13;1.80;;;1.70;;
11677;SDS011;5895;41.950;24.372;2023-03-14T04:08:40;1.92;;;1.75;;
11677;SDS011;5895;41.950;24.372;2023-03-14T04:11:10;1.40;;;1.30;;
11677;SDS011;5895;41.950;24.372;2023-03-14T04:13:37;2.17;;;1.50;;
11677;SDS011;5895;41.950;24.372;2023-03-14T04:16:09;1.73;;;1.50;;
11677;SDS011;5895;41.950;24.372;2023-03-14T04:18:41;1.80;;;1.70;;
11677;SDS011;5895;41.950;24.372;2023-03-14T04:21:08;2.85;;;2.40;;
11677;SDS011;5895;41.950;24.372;2023-03-14T04:23:35;2.17;;;1.80;;
11677;SDS011;5895;41.950;24.372;2023-03-14T04:26:03;2.22;;;1.90;;
11677;SDS011;5895;41.950;24.372;2023-03-14T04:28:32;3.67;;;3.30;;
11677;SDS011;5895;41.950;24.372;2023-03-14T04:31:06;5.45;;;4.95;;
11677;SDS011;5895;41.950;24.372;2023-03-14T04:33:34;4.60;;;4.20;;
11677;SDS011;5895;41.950;24.372;2023-03-14T04:36:02;4.15;;;2.85;;
11677;SDS011;5895;41.950;24.372;2023-03-14T04:38:30;2.72;;;2.53;;
11677;SDS011;5895;41.950;24.372;2023-03-14T04:40:57;4.40;;;3.05;;
11677;SDS011;5895;41.950;24.372;2023-03-14T04:43:25;3.10;;;2.80;;
11677;SDS011;5895;41.950;24.372;2023-03-14T04:45:54;2.72;;;2.53;;
11677;SDS011;5895;41.950;24.372;2023-03-14T04:48:23;3.35;;;2.63;;
11677;SDS011;5895;41.950;24.372;2023-03-14T04:50:51;2.40;;;2.20;;
11677;SDS011;5895;41.950;24.372;2023-03-14T04:53:18;2.50;;;2.30;;
11677;SDS011;5895;41.950;24.372;2023-03-14T04:55:47;2.38;;;2.17;;
11677;SDS011;5895;41.950;24.372;2023-03-14T04:58:15;3.20;;;2.22;;
11677;SDS011;5895;41.950;24.372;2023-03-14T05:00:42;2.10;;;1.90;;
11677;SDS011;5895;41.950;24.372;2023-03-14T05:03:11;1.75;;;1.65;;
11677;SDS011;5895;41.950;24.372;2023-03-14T05:05:40;1.70;;;1.60;;
11677;SDS011;5895;41.950;24.372;2023-03-14T05:08:08;1.52;;;1.30;;
11677;SDS011;5895;41.950;24.372;2023-03-14T05:10:35;1.20;;;1.10;;
11677;SDS011;5895;41.950;24.372;2023-03-14T05:13:03;2.00;;;1.80;;
11677;SDS011;5895;41.950;24.372;2023-03-14T05:15:30;2.25;;;2.05;;
11677;SDS011;5895;41.950;24.372;2023-03-14T05:17:57;1.55;;;1.45;;
11677;SDS011;5895;41.950;24.372;2023-03-14T05:20:26;6.63;;;2.30;;
11677;SDS011;5895;41.950;24.372;2023-03-14T05:22:54;6.43;;;5.38;;
11677;SDS011;5895;41.950;24.372;2023-03-14T05:25:21;5.15;;;4.65;;
11677;SDS011;5895;41.950;24.372;2023-03-14T05:27:48;4.88;;;2.40;;
11677;SDS011;5895;41.950;24.372;2023-03-14T05:30:16;2.38;;;2.17;;
11677;SDS011;5895;41.950;24.372;2023-03-14T05:32:43;2.30;;;2.10;;
11677;SDS011;5895;41.950;24.372;2023-03-14T05:35:10;3.85;;;2.63;;
11677;SDS011;5895;41.950;24.372;2023-03-14T05:37:39;2.40;;;2.20;;
11677;SDS011;5895;41.950;24.372;2023-03-14T05:40:07;2.42;;;2.22;;
11677;SDS011;5895;41.950;24.372;2023-03-14T05:42:35;3.38;;;2.45;;
11677;SDS011;5895;41.950;24.372;2023-03-14T05:45:02;3.78;;;3.00;;
11677;SDS011;5895;41.950;24.372;2023-03-14T05:47:30;4.35;;;3.83;;
11677;SDS011;5895;41.950;24.372;2023-03-14T05:49:57;4.78;;;4.10;;
11677;SDS011;5895;41.950;24.372;2023-03-14T05:52:25;3.95;;;2.92;;
11677;SDS011;5895;41.950;24.372;2023-03-14T05:54:53;3.35;;;3.05;;
11677;SDS011;5895;41.950;24.372;2023-03-14T05:57:21;7.00;;;5.97;;
11677;SDS011;5895;41.950;24.372;2023-03-14T05:59:48;7.80;;;5.80;;
11677;SDS011;5895;41.950;24.372;2023-03-14T06:02:15;5.25;;;3.78;;
11677;SDS011;5895;41.950;24.372;2023-03-14T06:04:42;5.07;;;3.97;;
11677;SDS011;5895;41.950;24.372;2023-03-14T06:07:09;6.63;;;5.70;;
11677;SDS011;5895;41.950;24.372;2023-03-14T06:09:37;5.80;;;5.00;;
11677;SDS011;5895;41.950;24.372;2023-03-14T06:12:06;6.95;;;5.78;;
11677;SDS011;5895;41.950;24.372;2023-03-14T06:14:33;7.18;;;6.47;;
11677;SDS011;5895;41.950;24.372;2023-03-14T06:17:01;5.20;;;4.70;;
11677;SDS011;5895;41.950;24.372;2023-03-14T06:19:28;4.20;;;3.80;;
11677;SDS011;5895;41.950;24.372;2023-03-14T06:21:55;5.18;;;4.03;;
11677;SDS011;5895;41.950;24.372;2023-03-14T06:24:23;6.00;;;3.63;;
11677;SDS011;5895;41.950;24.372;2023-03-14T06:26:50;5.03;;;3.80;;
11677;SDS011;5895;41.950;24.372;2023-03-14T06:29:19;3.33;;;3.03;;
11677;SDS011;5895;41.950;24.372;2023-03-14T06:31:46;3.85;;;2.90;;
11677;SDS011;5895;41.950;24.372;2023-03-14T06:34:14;9.95;;;6.13;;
11677;SDS011;5895;41.950;24.372;2023-03-14T06:36:41;11.02;;;6.63;;
11677;SDS011;5895;41.950;24.372;2023-03-14T06:39:08;5.57;;;4.30;;
11677;SDS011;5895;41.950;24.372;2023-03-14T06:41:36;2.38;;;2.00;;
11677;SDS011;5895;41.950;24.372;2023-03-14T06:44:03;2.70;;;1.80;;
11677;SDS011;5895;41.950;24.372;2023-03-14T06:46:32;2.67;;;2.10;;
11677;SDS011;5895;41.950;24.372;2023-03-14T06:49:00;2.05;;;1.85;;
11677;SDS011;5895;41.950;24.372;2023-03-14T06:51:27;1.33;;;1.23;;
11677;SDS011;5895;41.950;24.372;2023-03-14T06:53:54;1.45;;;1.30;;
11677;SDS011;5895;41.950;24.372;2023-03-14T06:56:21;1.60;;;1.25;;
11677;SDS011;5895;41.950;24.372;2023-03-14T06:58:49;1.20;;;1.10;;
11677;SDS011;5895;41.950;24.372;2023-03-14T07:01:20;1.20;;;1.10;;
11677;SDS011;5895;41.950;24.372;2023-03-14T07:03:51;1.77;;;1.27;;
11677;SDS011;5895;41.950;24.372;2023-03-14T07:06:19;1.40;;;1.15;;
11677;SDS011;5895;41.950;24.372;2023-03-14T07:08:46;1.90;;;1.38;;
11677;SDS011;5895;41.950;24.372;2023-03-14T07:11:14;1.30;;;1.20;;
11677;SDS011;5895;41.950;24.372;2023-03-14T07:13:41;1.50;;;1.40;;
11677;SDS011;5895;41.950;24.372;2023-03-14T07:16:09;1.35;;;1.25;;
11677;SDS011;5895;41.950;24.372;2023-03-14T07:18:36;2.25;;;1.40;;
11677;SDS011;5895;41.950;24.372;2023-03-14T07:21:05;1.50;;;1.05;;
11677;SDS011;5895;41.950;24.372;2023-03-14T07:23:34;1.35;;;1.25;;
11677;SDS011;5895;41.950;24.372;2023-03-14T07:26:01;1.30;;;1.20;;
11677;SDS011;5895;41.950;24.372;2023-03-14T07:28:29;1.25;;;1.10;;
11677;SDS011;5895;41.950;24.372;2023-03-14T07:30:56;1.30;;;1.20;;
11677;SDS011;5895;41.950;24.372;2023-03-14T07:33:24;1.20;;;1.10;;
11677;SDS011;5895;41.950;24.372;2023-03-14T07:35:51;1.55;;;1.10;;
11677;SDS011;5895;41.950;24.372;2023-03-14T07:38:20;1.50;;;1.20;;
11677;SDS011;5895;41.950;24.372;2023-03-14T07:40:47;1.05;;;1.00;;
11677;SDS011;5895;41.950;24.372;2023-03-14T07:43:14;1.30;;;1.20;;
11677;SDS011;5895;41.950;24.372;2023-03-14T07:45:45;1.30;;;1.20;;
11677;SDS011;5895;41.950;24.372;2023-03-14T07:48:12;1.20;;;1.10;;
11677;SDS011;5895;41.950;24.372;2023-03-14T07:50:39;1.38;;;1.23;;
11677;SDS011;5895;41.950;24.372;2023-03-14T07:53:07;1.33;;;1.20;;
11677;SDS011;5895;41.950;24.372;2023-03-14T07:55:35;1.30;;;1.20;;
11677;SDS011;5895;41.950;24.372;2023-03-14T07:58:03;1.30;;;1.20;;
11677;SDS011;5895;41.950;24.372;2023-03-14T08:00:30;1.40;;;1.30;;
11677;SDS011;5895;41.950;24.372;2023-03-14T08:02:57;1.10;;;1.10;;
11677;SDS011;5895;41.950;24.372;2023-03-14T08:05:26;4.63;;;1.23;;
11677;SDS011;5895;41.950;24.372;2023-03-14T08:07:53;2.05;;;1.42;;
11677;SDS011;5895;41.950;24.372;2023-03-14T08:10:21;3.92;;;1.42;;
11677;SDS011;5895;41.950;24.372;2023-03-14T08:12:50;1.30;;;1.20;;
11677;SDS011;5895;41.950;24.372;2023-03-14T08:15:18;1.20;;;1.10;;
11677;SDS011;5895;41.950;24.372;2023-03-14T08:17:45;3.08;;;1.02;;
11677;SDS011;5895;41.950;24.372;2023-03-14T08:20:16;1.20;;;1.10;;
11677;SDS011;5895;41.950;24.372;2023-03-14T08:22:43;1.38;;;1.27;;
11677;SDS011;5895;41.950;24.372;2023-03-14T08:25:12;1.25;;;1.13;;
11677;SDS011;5895;41.950;24.372;2023-03-14T08:27:40;1.10;;;1.00;;
11677;SDS011;5895;41.950;24.372;2023-03-14T08:30:09;1.05;;;1.05;;
11677;SDS011;5895;41.950;24.372;2023-03-14T08:32:38;1.05;;;1.00;;
11677;SDS011;5895;41.950;24.372;2023-03-14T08:35:06;1.13;;;1.10;;
11677;SDS011;5895;41.950;24.372;2023-03-14T08:37:34;1.83;;;1.20;;
11677;SDS011;5895;41.950;24.372;2023-03-14T08:40:02;1.30;;;1.20;;
11677;SDS011;5895;41.950;24.372;2023-03-14T08:42:32;1.00;;;1.00;;
11677;SDS011;5895;41.950;24.372;2023-03-14T08:44:59;1.58;;;1.20;;
11677;SDS011;5895;41.950;24.372;2023-03-14T08:47:28;0.98;;;0.90;;
11677;SDS011;5895;41.950;24.372;2023-03-14T08:49:55;0.95;;;0.95;;
11677;SDS011;5895;41.950;24.372;2023-03-14T08:52:23;2.33;;;1.10;;
11677;SDS011;5895;41.950;24.372;2023-03-14T08:54:50;1.13;;;1.13;;
11677;SDS011;5895;41.950;24.372;2023-03-14T08:57:18;1.25;;;1.10;;
11677;SDS011;5895;41.950;24.372;2023-03-14T08:59:47;1.23;;;1.13;;
11677;SDS011;5895;41.950;24.372;2023-03-14T09:02:14;1.02;;;1.02;;
11677;SDS011;5895;41.950;24.372;2023-03-14T09:04:43;0.95;;;0.93;;
11677;SDS011;5895;41.950;24.372;2023-03-14T09:07:10;1.10;;;1.02;;
11677;SDS011;5895;41.950;24.372;2023-03-14T09:09:38;1.23;;;1.10;;
11677;SDS011;5895;41.950;24.372;2023-03-14T09:12:05;1.45;;;1.27;;
11677;SDS011;5895;41.950;24.372;2023-03-14T09:14:33;1.00;;;1.00;;
11677;SDS011;5895;41.950;24.372;2023-03-14T09:17:00;0.80;;;0.80;;
11677;SDS011;5895;41.950;24.372;2023-03-14T09:19:28;0.90;;;0.90;;
11677;SDS011;5895;41.950;24.372;2023-03-14T09:21:58;1.17;;;1.00;;
11677;SDS011;5895;41.950;24.372;2023-03-14T09:24:25;0.80;;;0.80;;
11677;SDS011;5895;41.950;24.372;2023-03-14T09:26:52;0.80;;;0.80;;
11677;SDS011;5895;41.950;24.372;2023-03-14T09:29:21;0.90;;;0.90;;
11677;SDS011;5895;41.950;24.372;2023-03-14T09:31:49;0.90;;;0.90;;
11677;SDS011;5895;41.950;24.372;2023-03-14T09:34:17;1.00;;;0.90;;
11677;SDS011;5895;41.950;24.372;2023-03-14T09:36:44;0.98;;;0.98;;
11677;SDS011;5895;41.950;24.372;2023-03-14T09:39:13;1.20;;;0.80;;
11677;SDS011;5895;41.950;24.372;2023-03-14T09:41:43;0.77;;;0.77;;
11677;SDS011;5895;41.950;24.372;2023-03-14T09:44:13;1.08;;;0.90;;
11677;SDS011;5895;41.950;24.372;2023-03-14T09:46:43;1.15;;;0.90;;
11677;SDS011;5895;41.950;24.372;2023-03-14T09:49:16;0.90;;;0.90;;
11677;SDS011;5895;41.950;24.372;2023-03-14T09:51:47;0.93;;;0.90;;
11677;SDS011;5895;41.950;24.372;2023-03-14T09:54:22;1.10;;;1.00;;
11677;SDS011;5895;41.950;24.372;2023-03-14T09:56:56;1.05;;;0.90;;
11677;SDS011;5895;41.950;24.372;2023-03-14T09:59:24;1.10;;;1.00;;
11677;SDS011;5895;41.950;24.372;2023-03-14T10:01:52;1.05;;;0.98;;
11677;SDS011;5895;41.950;24.372;2023-03-14T10:04:21;1.45;;;1.10;;
11677;SDS011;5895;41.950;24.372;2023-03-14T10:06:49;0.90;;;0.90;;
11677;SDS011;5895;41.950;24.372;2023-03-14T10:09:18;1.20;;;1.10;;
11677;SDS011;5895;41.950;24.372;2023-03-14T10:11:54;1.23;;;1.13;;
11677;SDS011;5895;41.950;24.372;2023-03-14T10:14:29;2.97;;;1.05;;
11677;SDS011;5895;41.950;24.372;2023-03-14T10:17:04;1.15;;;1.10;;
11677;SDS011;5895;41.950;24.372;2023-03-14T10:19:35;1.20;;;1.10;;
11677;SDS011;5895;41.950;24.372;2023-03-14T10:22:03;0.98;;;0.98;;
11677;SDS011;5895;41.950;24.372;2023-03-14T10:24:33;2.15;;;1.27;;
11677;SDS011;5895;41.950;24.372;2023-03-14T10:27:03;1.40;;;1.30;;
11677;SDS011;5895;41.950;24.372;2023-03-14T10:29:32;1.48;;;1.38;;
11677;SDS011;5895;41.950;24.372;2023-03-14T10:32:01;1.35;;;1.25;;
11677;SDS011;5895;41.950;24.372;2023-03-14T10:34:33;5.78;;;3.50;;
11677;SDS011;5895;41.950;24.372;2023-03-14T10:37:05;3.95;;;3.03;;
11677;SDS011;5895;41.950;24.372;2023-03-14T10:39:41;6.70;;;4.07;;
11677;SDS011;5895;41.950;24.372;2023-03-14T10:42:13;5.85;;;4.07;;
11677;SDS011;5895;41.950;24.372;2023-03-14T10:44:45;6.90;;;4.45;;
11677;SDS011;5895;41.950;24.372;2023-03-14T10:47:17;6.15;;;4.53;;
11677;SDS011;5895;41.950;24.372;2023-03-14T10:49:47;7.25;;;4.65;;
11677;SDS011;5895;41.950;24.372;2023-03-14T10:52:15;6.82;;;4.43;;
11677;SDS011;5895;41.950;24.372;2023-03-14T10:54:53;5.60;;;4.30;;
11677;SDS011;5895;41.950;24.372;2023-03-14T10:57:23;5.63;;;3.25;;
11677;SDS011;5895;41.950;24.372;2023-03-14T10:59:51;11.00;;;5.05;;
11677;SDS011;5895;41.950;24.372;2023-03-14T11:05:21;5.68;;;4.25;;
11677;SDS011;5895;41.950;24.372;2023-03-14T11:07:56;11.70;;;5.25;;
11677;SDS011;5895;41.950;24.372;2023-03-14T11:10:32;8.43;;;3.75;;
11677;SDS011;5895;41.950;24.372;2023-03-14T11:13:07;5.88;;;3.67;;
11677;SDS011;5895;41.950;24.372;2023-03-14T11:15:43;4.78;;;4.38;;
11677;SDS011;5895;41.950;24.372;2023-03-14T11:21:35;5.15;;;3.72;;
11677;SDS011;5895;41.950;24.372;2023-03-14T11:24:13;3.85;;;2.95;;
11677;SDS011;5895;41.950;24.372;2023-03-14T11:26:51;2.72;;;2.53;;
11677;SDS011;5895;41.950;24.372;2023-03-14T11:29:28;3.13;;;2.83;;
11677;SDS011;5895;41.950;24.372;2023-03-14T11:32:08;2.60;;;2.40;;
11677;SDS011;5895;41.950;24.372;2023-03-14T11:34:39;4.45;;;2.83;;
11677;SDS011;5895;41.950;24.372;2023-03-14T11:37:17;2.53;;;2.33;;
11677;SDS011;5895;41.950;24.372;2023-03-14T11:39:52;4.40;;;2.67;;
11677;SDS011;5895;41.950;24.372;2023-03-14T11:42:28;5.18;;;3.55;;
11677;SDS011;5895;41.950;24.372;2023-03-14T11:44:57;7.78;;;4.20;;
11677;SDS011;5895;41.950;24.372;2023-03-14T11:47:28;4.75;;;3.30;;
11677;SDS011;5895;41.950;24.372;2023-03-14T11:49:58;7.60;;;3.67;;
11677;SDS011;5895;41.950;24.372;2023-03-14T11:52:29;4.00;;;3.60;;
11677;SDS011;5895;41.950;24.372;2023-03-14T11:55:02;4.47;;;3.95;;
11677;SDS011;5895;41.950;24.372;2023-03-14T11:57:35;4.55;;;4.03;;
11677;SDS011;5895;41.950;24.372;2023-03-14T12:00:05;4.50;;;3.55;;
11677;SDS011;5895;41.950;24.372;2023-03-14T12:02:43;4.00;;;3.60;;
11677;SDS011;5895;41.950;24.372;2023-03-14T12:11:14;13.02;;;4.28;;
11677;SDS011;5895;41.950;24.372;2023-03-14T12:13:48;8.93;;;3.95;;
11677;SDS011;5895;41.950;24.372;2023-03-14T12:16:25;6.20;;;3.53;;
11677;SDS011;5895;41.950;24.372;2023-03-14T12:19:13;4.35;;;3.90;;
11677;SDS011;5895;41.950;24.372;2023-03-14T12:22:05;3.78;;;2.83;;
11677;SDS011;5895;41.950;24.372;2023-03-14T12:24:49;5.47;;;3.45;;
11677;SDS011;5895;41.950;24.372;2023-03-14T12:33:19;4.60;;;2.50;;
11677;SDS011;5895;41.950;24.372;2023-03-14T12:39:20;4.75;;;4.22;;
11677;SDS011;5895;41.950;24.372;2023-03-14T12:42:01;4.88;;;4.00;;
11677;SDS011;5895;41.950;24.372;2023-03-14T12:44:40;3.85;;;2.15;;
11677;SDS011;5895;41.950;24.372;2023-03-14T12:50:18;3.15;;;2.30;;
11677;SDS011;5895;41.950;24.372;2023-03-14T12:55:45;2.65;;;2.35;;
11677;SDS011;5895;41.950;24.372;2023-03-14T12:58:21;11.43;;;5.47;;
11677;SDS011;5895;41.950;24.372;2023-03-14T13:00:57;7.25;;;3.75;;
11677;SDS011;5895;41.950;24.372;2023-03-14T13:03:36;8.15;;;5.60;;
11677;SDS011;5895;41.950;24.372;2023-03-14T13:06:08;7.22;;;4.47;;
11677;SDS011;5895;41.950;24.372;2023-03-14T13:08:38;3.78;;;3.45;;
11677;SDS011;5895;41.950;24.372;2023-03-14T13:11:08;6.75;;;5.07;;
11677;SDS011;5895;41.950;24.372;2023-03-14T13:13:41;7.78;;;5.47;;
11677;SDS011;5895;41.950;24.372;2023-03-14T13:16:12;6.90;;;5.60;;
11677;SDS011;5895;41.950;24.372;2023-03-14T13:18:43;6.28;;;5.25;;
11677;SDS011;5895;41.950;24.372;2023-03-14T13:21:14;3.97;;;3.30;;
11677;SDS011;5895;41.950;24.372;2023-03-14T13:23:55;13.88;;;6.20;;
11677;SDS011;5895;41.950;24.372;2023-03-14T13:26:24;7.13;;;5.05;;
11677;SDS011;5895;41.950;24.372;2023-03-14T13:28:59;5.85;;;5.25;;
11677;SDS011;5895;41.950;24.372;2023-03-14T13:31:26;8.07;;;5.55;;
11677;SDS011;5895;41.950;24.372;2023-03-14T13:33:58;8.25;;;5.43;;
11677;SDS011;5895;41.950;24.372;2023-03-14T13:36:28;4.10;;;3.05;;
11677;SDS011;5895;41.950;24.372;2023-03-14T13:38:57;7.30;;;4.70;;
11677;SDS011;5895;41.950;24.372;2023-03-14T13:41:26;2.90;;;2.60;;
11677;SDS011;5895;41.950;24.372;2023-03-14T13:43:57;2.83;;;2.53;;
11677;SDS011;5895;41.950;24.372;2023-03-14T13:46:29;5.20;;;3.47;;
11677;SDS011;5895;41.950;24.372;2023-03-14T13:48:58;7.40;;;6.60;;
11677;SDS011;5895;41.950;24.372;2023-03-14T13:51:29;3.03;;;2.60;;
11677;SDS011;5895;41.950;24.372;2023-03-14T13:53:59;5.00;;;4.57;;
11677;SDS011;5895;41.950;24.372;2023-03-14T13:56:28;2.47;;;2.20;;
11677;SDS011;5895;41.950;24.372;2023-03-14T13:58:57;3.55;;;2.17;;
11677;SDS011;5895;41.950;24.372;2023-03-14T14:01:25;5.32;;;3.00;;
11677;SDS011;5895;41.950;24.372;2023-03-14T14:03:56;4.50;;;3.55;;
11677;SDS011;5895;41.950;24.372;2023-03-14T14:06:30;7.63;;;6.18;;
11677;SDS011;5895;41.950;24.372;2023-03-14T14:09:00;3.45;;;2.47;;
11677;SDS011;5895;41.950;24.372;2023-03-14T14:11:35;9.38;;;7.28;;
11677;SDS011;5895;41.950;24.372;2023-03-14T14:14:09;3.85;;;2.92;;
11677;SDS011;5895;41.950;24.372;2023-03-14T14:16:40;2.50;;;2.30;;
11677;SDS011;5895;41.950;24.372;2023-03-14T14:19:09;4.00;;;2.92;;
11677;SDS011;5895;41.950;24.372;2023-03-14T14:21:38;1.90;;;1.70;;
11677;SDS011;5895;41.950;24.372;2023-03-14T14:24:07;18.15;;;12.50;;
11677;SDS011;5895;41.950;24.372;2023-03-14T14:26:36;3.13;;;2.60;;
11677;SDS011;5895;41.950;24.372;2023-03-14T14:29:18;11.93;;;7.22;;
11677;SDS011;5895;41.950;24.372;2023-03-14T14:31:59;5.22;;;2.42;;
11677;SDS011;5895;41.950;24.372;2023-03-14T14:34:28;3.72;;;1.85;;
11677;SDS011;5895;41.950;24.372;2023-03-14T14:36:57;3.85;;;3.25;;
11677;SDS011;5895;41.950;24.372;2023-03-14T14:39:25;6.63;;;4.80;;
11677;SDS011;5895;41.950;24.372;2023-03-14T14:41:54;3.15;;;2.25;;
11677;SDS011;5895;41.950;24.372;2023-03-14T14:44:25;9.15;;;5.47;;
11677;SDS011;5895;41.950;24.372;2023-03-14T14:46:56;6.57;;;3.72;;
11677;SDS011;5895;41.950;24.372;2023-03-14T14:49:28;10.23;;;5.90;;
11677;SDS011;5895;41.950;24.372;2023-03-14T14:52:01;12.00;;;7.97;;
11677;SDS011;5895;41.950;24.372;2023-03-14T14:54:34;8.60;;;6.00;;
11677;SDS011;5895;41.950;24.372;2023-03-14T14:57:05;3.95;;;2.30;;
11677;SDS011;5895;41.950;24.372;2023-03-14T14:59:43;9.88;;;7.40;;
11677;SDS011;5895;41.950;24.372;2023-03-14T15:02:20;9.68;;;8.68;;
11677;SDS011;5895;41.950;24.372;2023-03-14T15:04:55;8.98;;;8.02;;
11677;SDS011;5895;41.950;24.372;2023-03-14T15:07:24;10.27;;;8.00;;
11677;SDS011;5895;41.950;24.372;2023-03-14T15:09:51;8.88;;;7.90;;
11677;SDS011;5895;41.950;24.372;2023-03-14T15:12:19;9.68;;;8.00;;
11677;SDS011;5895;41.950;24.372;2023-03-14T15:14:49;11.48;;;8.98;;
11677;SDS011;5895;41.950;24.372;2023-03-14T15:17:17;11.20;;;8.68;;
11677;SDS011;5895;41.950;24.372;2023-03-14T15:19:44;12.32;;;10.00;;
11677;SDS011;5895;41.950;24.372;2023-03-14T15:22:12;14.20;;;11.05;;
11677;SDS011;5895;41.950;24.372;2023-03-14T15:24:41;15.88;;;10.98;;
11677;SDS011;5895;41.950;24.372;2023-03-14T15:27:11;20.35;;;11.20;;
11677;SDS011;5895;41.950;24.372;2023-03-14T15:29:40;17.67;;;13.05;;
11677;SDS011;5895;41.950;24.372;2023-03-14T15:32:09;21.77;;;12.77;;
11677;SDS011;5895;41.950;24.372;2023-03-14T15:34:38;22.13;;;15.40;;
11677;SDS011;5895;41.950;24.372;2023-03-14T15:37:07;17.67;;;12.50;;